sensor_id;sensor_type;location;lat;lon;timestamp;temperature;humidity
77039;DHT22;65970;50.476;4.840;2023-03-12T00:00:26;5.00;71.40
77039;DHT22;65970;50.476;4.840;2023-03-12T00:05:27;5.00;73.80
77039;DHT22;65970;50.476;4.840;2023-03-12T00:10:28;5.00;72.30
77039;DHT22;65970;50.476;4.840;2023-03-12T00:15:29;5.00;77.10
77039;DHT22;65970;50.476;4.840;2023-03-12T00:20:29;5.00;71.90
77039;DHT22;65970;50.476;4.840;2023-03-12T00:25:30;5.00;80.40
77039;DHT22;65970;50.476;4.840;2023-03-12T00:30:30;5.00;71.00
77039;DHT22;65970;50.476;4.840;2023-03-12T00:35:31;5.00;72.70
77039;DHT22;65970;50.476;4.840;2023-03-12T00:40:31;4.90;69.80
77039;DHT22;65970;50.476;4.840;2023-03-12T00:45:32;4.70;70.70
77039;DHT22;65970;50.476;4.840;2023-03-12T00:50:33;4.70;79.10
77039;DHT22;65970;50.476;4.840;2023-03-12T00:55:33;4.70;82.80
77039;DHT22;65970;50.476;4.840;2023-03-12T01:00:34;4.60;79.90
77039;DHT22;65970;50.476;4.840;2023-03-12T01:05:35;4.60;81.60
77039;DHT22;65970;50.476;4.840;2023-03-12T01:10:39;4.60;83.50
77039;DHT22;65970;50.476;4.840;2023-03-12T01:15:40;4.50;83.60
77039;DHT22;65970;50.476;4.840;2023-03-12T01:20:40;4.50;84.20
77039;DHT22;65970;50.476;4.840;2023-03-12T01:25:41;4.40;87.60
77039;DHT22;65970;50.476;4.840;2023-03-12T01:30:42;4.30;84.90
77039;DHT22;65970;50.476;4.840;2023-03-12T01:35:42;4.30;85.40
77039;DHT22;65970;50.476;4.840;2023-03-12T01:40:43;4.40;92.90
77039;DHT22;65970;50.476;4.840;2023-03-12T01:51:17;4.30;88.40
77039;DHT22;65970;50.476;4.840;2023-03-12T01:56:18;4.30;90.40
77039;DHT22;65970;50.476;4.840;2023-03-12T02:01:21;4.30;94.10
77039;DHT22;65970;50.476;4.840;2023-03-12T02:06:32;4.30;98.10
77039;DHT22;65970;50.476;4.840;2023-03-12T02:11:35;4.30;99.90
77039;DHT22;65970;50.476;4.840;2023-03-12T05:51:26;5.20;99.90
77039;DHT22;65970;50.476;4.840;2023-03-12T05:56:27;5.30;99.90
77039;DHT22;65970;50.476;4.840;2023-03-12T06:01:29;5.40;99.90
77039;DHT22;65970;50.476;4.840;2023-03-12T06:06:31;5.40;99.90
77039;DHT22;65970;50.476;4.840;2023-03-12T06:11:33;5.40;99.90
77039;DHT22;65970;50.476;4.840;2023-03-12T06:16:34;5.50;99.90
77039;DHT22;65970;50.476;4.840;2023-03-12T06:21:34;5.50;99.90
77039;DHT22;65970;50.476;4.840;2023-03-12T06:26:35;5.50;99.90
77039;DHT22;65970;50.476;4.840;2023-03-12T06:31:36;5.60;99.90
77039;DHT22;65970;50.476;4.840;2023-03-12T06:36:36;5.60;99.90
77039;DHT22;65970;50.476;4.840;2023-03-12T06:41:37;5.70;99.90
77039;DHT22;65970;50.476;4.840;2023-03-12T06:46:38;5.70;99.90
77039;DHT22;65970;50.476;4.840;2023-03-12T06:51:38;5.80;99.90
77039;DHT22;65970;50.476;4.840;2023-03-12T06:56:39;5.90;99.90
77039;DHT22;65970;50.476;4.840;2023-03-12T07:01:39;6.00;99.90
77039;DHT22;65970;50.476;4.840;2023-03-12T07:06:40;6.00;99.90
77039;DHT22;65970;50.476;4.840;2023-03-12T07:11:41;6.10;99.90
77039;DHT22;65970;50.476;4.840;2023-03-12T07:16:41;6.20;99.90
77039;DHT22;65970;50.476;4.840;2023-03-12T07:21:42;6.30;99.90
77039;DHT22;65970;50.476;4.840;2023-03-12T07:26:42;6.40;99.90
77039;DHT22;65970;50.476;4.840;2023-03-12T07:31:43;6.50;99.90
77039;DHT22;65970;50.476;4.840;2023-03-12T07:36:43;6.70;99.90
77039;DHT22;65970;50.476;4.840;2023-03-12T07:41:44;6.80;99.90
77039;DHT22;65970;50.476;4.840;2023-03-12T07:46:45;6.80;99.90
77039;DHT22;65970;50.476;4.840;2023-03-12T07:51:45;7.00;99.90
77039;DHT22;65970;50.476;4.840;2023-03-12T07:56:46;7.00;99.90
77039;DHT22;65970;50.476;4.840;2023-03-12T08:01:47;7.10;99.90
77039;DHT22;65970;50.476;4.840;2023-03-12T08:06:47;7.20;99.90
77039;DHT22;65970;50.476;4.840;2023-03-12T08:11:48;7.20;99.90
77039;DHT22;65970;50.476;4.840;2023-03-12T08:16:48;7.30;99.90
77039;DHT22;65970;50.476;4.840;2023-03-12T08:21:49;7.40;99.90
77039;DHT22;65970;50.476;4.840;2023-03-12T08:26:50;7.50;99.90
77039;DHT22;65970;50.476;4.840;2023-03-12T08:31:50;7.50;99.90
77039;DHT22;65970;50.476;4.840;2023-03-12T08:36:51;7.60;99.90
77039;DHT22;65970;50.476;4.840;2023-03-12T08:41:52;7.70;99.90
77039;DHT22;65970;50.476;4.840;2023-03-12T08:46:52;7.80;99.90
77039;DHT22;65970;50.476;4.840;2023-03-12T08:51:53;7.80;99.90
77039;DHT22;65970;50.476;4.840;2023-03-12T08:56:53;7.90;99.90
77039;DHT22;65970;50.476;4.840;2023-03-12T09:01:54;7.90;99.90
77039;DHT22;65970;50.476;4.840;2023-03-12T09:06:54;8.00;99.90
77039;DHT22;65970;50.476;4.840;2023-03-12T09:11:55;8.00;99.90
77039;DHT22;65970;50.476;4.840;2023-03-12T09:16:56;8.10;99.90
77039;DHT22;65970;50.476;4.840;2023-03-12T09:21:57;8.10;99.90
77039;DHT22;65970;50.476;4.840;2023-03-12T09:26:58;8.20;99.90
77039;DHT22;65970;50.476;4.840;2023-03-12T09:31:58;8.30;99.90
77039;DHT22;65970;50.476;4.840;2023-03-12T09:36:59;8.40;99.90
77039;DHT22;65970;50.476;4.840;2023-03-12T09:42:00;8.40;99.90
77039;DHT22;65970;50.476;4.840;2023-03-12T09:47:15;8.50;99.90
77039;DHT22;65970;50.476;4.840;2023-03-12T09:57:25;8.50;99.90
77039;DHT22;65970;50.476;4.840;2023-03-12T10:07:49;8.70;99.90
77039;DHT22;65970;50.476;4.840;2023-03-12T10:23:51;8.80;99.90
77039;DHT22;65970;50.476;4.840;2023-03-12T10:29:12;8.90;99.90
77039;DHT22;65970;50.476;4.840;2023-03-12T10:39:22;9.00;99.90
77039;DHT22;65970;50.476;4.840;2023-03-12T10:44:24;9.10;99.90
77039;DHT22;65970;50.476;4.840;2023-03-12T10:49:28;9.10;99.90
77039;DHT22;65970;50.476;4.840;2023-03-12T10:54:33;9.20;99.90
77039;DHT22;65970;50.476;4.840;2023-03-12T10:59:37;9.20;99.90
77039;DHT22;65970;50.476;4.840;2023-03-12T11:04:38;9.30;99.90
77039;DHT22;65970;50.476;4.840;2023-03-12T11:09:38;9.40;99.90
77039;DHT22;65970;50.476;4.840;2023-03-12T11:14:44;9.40;99.90
77039;DHT22;65970;50.476;4.840;2023-03-12T11:19:45;9.50;99.90
77039;DHT22;65970;50.476;4.840;2023-03-12T11:24:57;9.50;99.90
77039;DHT22;65970;50.476;4.840;2023-03-12T11:29:59;9.60;99.90
77039;DHT22;65970;50.476;4.840;2023-03-12T11:35:02;9.70;99.90
77039;DHT22;65970;50.476;4.840;2023-03-12T11:40:16;9.90;99.90
77039;DHT22;65970;50.476;4.840;2023-03-12T11:45:25;10.00;99.90
77039;DHT22;65970;50.476;4.840;2023-03-12T11:50:32;10.10;99.90
77039;DHT22;65970;50.476;4.840;2023-03-12T12:00:56;10.40;99.90
77039;DHT22;65970;50.476;4.840;2023-03-12T12:06:22;10.50;99.90
77039;DHT22;65970;50.476;4.840;2023-03-12T12:11:40;10.50;99.90
77039;DHT22;65970;50.476;4.840;2023-03-12T12:16:57;10.50;99.90
77039;DHT22;65970;50.476;4.840;2023-03-12T12:22:20;10.70;99.90
77039;DHT22;65970;50.476;4.840;2023-03-12T12:27:25;10.70;99.90
77039;DHT22;65970;50.476;4.840;2023-03-12T12:42:33;10.90;99.90
77039;DHT22;65970;50.476;4.840;2023-03-12T12:48:05;10.80;99.90
77039;DHT22;65970;50.476;4.840;2023-03-12T12:53:25;10.80;99.90
77039;DHT22;65970;50.476;4.840;2023-03-12T13:04:00;10.80;99.90
77039;DHT22;65970;50.476;4.840;2023-03-12T13:09:13;10.80;99.90
77039;DHT22;65970;50.476;4.840;2023-03-12T13:14:19;10.90;99.90
77039;DHT22;65970;50.476;4.840;2023-03-12T13:19:26;10.80;99.90
77039;DHT22;65970;50.476;4.840;2023-03-12T13:29:46;10.90;99.90
77039;DHT22;65970;50.476;4.840;2023-03-12T13:34:46;10.80;98.00
77039;DHT22;65970;50.476;4.840;2023-03-12T13:40:13;10.80;96.00
77039;DHT22;65970;50.476;4.840;2023-03-12T18:10:25;10.60;99.70
77039;DHT22;65970;50.476;4.840;2023-03-12T18:15:26;10.60;99.90
77039;DHT22;65970;50.476;4.840;2023-03-12T18:20:27;10.60;99.60
77039;DHT22;65970;50.476;4.840;2023-03-12T18:25:27;10.60;99.90
77039;DHT22;65970;50.476;4.840;2023-03-12T18:30:30;10.50;99.90
77039;DHT22;65970;50.476;4.840;2023-03-12T18:35:31;10.50;99.90
77039;DHT22;65970;50.476;4.840;2023-03-12T18:40:31;10.50;99.90
77039;DHT22;65970;50.476;4.840;2023-03-12T18:45:32;10.50;99.90
77039;DHT22;65970;50.476;4.840;2023-03-12T18:50:33;10.50;98.60
77039;DHT22;65970;50.476;4.840;2023-03-12T18:55:34;10.50;99.90
77039;DHT22;65970;50.476;4.840;2023-03-12T19:00:34;10.50;99.90
77039;DHT22;65970;50.476;4.840;2023-03-12T19:05:35;10.40;99.90
77039;DHT22;65970;50.476;4.840;2023-03-12T19:10:35;10.40;99.90
77039;DHT22;65970;50.476;4.840;2023-03-12T19:15:37;10.40;99.90
77039;DHT22;65970;50.476;4.840;2023-03-12T19:20:38;10.40;99.90
77039;DHT22;65970;50.476;4.840;2023-03-12T19:25:39;10.40;99.90
77039;DHT22;65970;50.476;4.840;2023-03-12T19:30:39;10.40;99.90
77039;DHT22;65970;50.476;4.840;2023-03-12T19:35:40;10.40;99.90
77039;DHT22;65970;50.476;4.840;2023-03-12T20:58:16;10.20;99.90
77039;DHT22;65970;50.476;4.840;2023-03-12T21:03:16;10.20;99.90
77039;DHT22;65970;50.476;4.840;2023-03-12T21:08:17;10.20;99.90
77039;DHT22;65970;50.476;4.840;2023-03-12T21:13:19;10.20;99.90
77039;DHT22;65970;50.476;4.840;2023-03-12T21:18:20;10.20;99.90
77039;DHT22;65970;50.476;4.840;2023-03-12T21:23:21;10.20;99.90
77039;DHT22;65970;50.476;4.840;2023-03-12T21:28:21;10.20;99.90
77039;DHT22;65970;50.476;4.840;2023-03-12T21:33:22;10.20;99.90
77039;DHT22;65970;50.476;4.840;2023-03-12T21:38:22;10.20;99.90
77039;DHT22;65970;50.476;4.840;2023-03-12T21:43:27;10.20;99.90
77039;DHT22;65970;50.476;4.840;2023-03-12T21:48:28;10.30;99.90
77039;DHT22;65970;50.476;4.840;2023-03-12T21:53:29;10.30;99.90
77039;DHT22;65970;50.476;4.840;2023-03-12T21:58:32;10.30;99.90
77039;DHT22;65970;50.476;4.840;2023-03-12T22:03:34;10.40;99.90
77039;DHT22;65970;50.476;4.840;2023-03-12T22:08:41;10.40;99.90
77039;DHT22;65970;50.476;4.840;2023-03-12T22:13:45;10.50;99.90
77039;DHT22;65970;50.476;4.840;2023-03-12T22:18:45;10.50;99.90
77039;DHT22;65970;50.476;4.840;2023-03-12T22:23:48;10.50;99.90
77039;DHT22;65970;50.476;4.840;2023-03-12T22:28:54;10.60;99.90
